Creedmoor, North Carolina
Current Conditions -  °F | °C
As of 3:51 PM on Saturday 22 Nov 2014 (Local Time) from KRDU Reporting Station
Scattered Clouds Scattered Clouds  
Wind Chill: 53°   Ceiling: Unl
Heat Index: 53°   Visibility: 10mi
Dew Point: 12°   Wind: 5mph
Humidity: 20%   Direction: 210°SSW
Pressure: 30.41"   Gusts: NA
Location:  36.12°N, 78.69°W
Report Text: KRDU 222051Z 21004KT 10SM SCT250 12/M11 A3041 RMK AO2 SLP299 T01171111 56023 $
Loading
Personal Weather Stations






























Interactive Weather Map New forecast layout! Learn more

10-Day Weather Forecast

Advertisements
Track Severe Weather on mobile